KLM249 LOWW-EHAM
Flight info
| Callsign | KLM249 |
|---|---|
| Flight time | N/A |
| Altitude | 40000 |
| Route | BUWUT2B/16 BUWUT DCT DITIS DCT RAPET DCT MASEK DCT MAPOX DCT ABILU Z850 HMM DCT NORKU |
| Aircraft | B77W/H-SDE1E2E3FGHIJ2J3J4J5M1RWXY/LB1D1 |
Departure
| Time | 2026-05-04 19:21 |
|---|---|
| Airport | Vienna International Airport (LOWW) |
Arrival
| Time | N/A |
|---|---|
| Airport | Amsterdam Airport Schiphol (EHAM) |
| Time | Latitude | Longitude | Altitude | Speed | Heading |
|---|---|---|---|---|---|
| 2026-05-04 18:50 | 48.11755 | 16.56113 | 625 ft | 0 kts | 25° |
| 2026-05-04 19:11 | 48.11754 | 16.56112 | 613 ft | 2 kts | 25° |
| 2026-05-04 19:11 | 48.11738 | 16.56100 | 632 ft | 3 kts | 19° |
| 2026-05-04 19:11 | 48.11720 | 16.56096 | 630 ft | 2 kts | 346° |
| 2026-05-04 19:11 | 48.11704 | 16.56107 | 630 ft | 3 kts | 312° |
| 2026-05-04 19:12 | 48.11700 | 16.56113 | 630 ft | 0 kts | 304° |
| 2026-05-04 19:13 | 48.11701 | 16.56111 | 630 ft | 2 kts | 300° |
| 2026-05-04 19:13 | 48.11699 | 16.56063 | 630 ft | 9 kts | 258° |
| 2026-05-04 19:13 | 48.11669 | 16.55975 | 634 ft | 10 kts | 239° |
| 2026-05-04 19:13 | 48.11670 | 16.55871 | 628 ft | 12 kts | 288° |
| 2026-05-04 19:14 | 48.11715 | 16.55728 | 621 ft | 17 kts | 296° |
| 2026-05-04 19:14 | 48.11766 | 16.55570 | 628 ft | 18 kts | 295° |
| 2026-05-04 19:14 | 48.11824 | 16.55388 | 624 ft | 20 kts | 295° |
| 2026-05-04 19:14 | 48.11880 | 16.55213 | 621 ft | 18 kts | 295° |
| 2026-05-04 19:15 | 48.11936 | 16.55035 | 622 ft | 19 kts | 295° |
| 2026-05-04 19:15 | 48.11994 | 16.54856 | 624 ft | 20 kts | 296° |
| 2026-05-04 19:15 | 48.12057 | 16.54667 | 623 ft | 20 kts | 296° |
| 2026-05-04 19:15 | 48.12123 | 16.54471 | 623 ft | 22 kts | 296° |
| 2026-05-04 19:16 | 48.12194 | 16.54256 | 619 ft | 23 kts | 296° |
| 2026-05-04 19:16 | 48.12265 | 16.54036 | 602 ft | 22 kts | 296° |
| 2026-05-04 19:16 | 48.12328 | 16.53839 | 601 ft | 21 kts | 295° |
| 2026-05-04 19:16 | 48.12380 | 16.53667 | 602 ft | 13 kts | 283° |
| 2026-05-04 19:17 | 48.12357 | 16.53585 | 615 ft | 0 kts | 219° |
| 2026-05-04 19:19 | 48.12332 | 16.53560 | 618 ft | 8 kts | 211° |
| 2026-05-04 19:19 | 48.12278 | 16.53518 | 620 ft | 11 kts | 198° |
| 2026-05-04 19:19 | 48.12203 | 16.53573 | 616 ft | 1 kts | 116° |
| 2026-05-04 19:20 | 48.12138 | 16.53770 | 614 ft | 73 kts | 116° |
| 2026-05-04 19:20 | 48.11724 | 16.55054 | 627 ft | 198 kts | 115° |
| 2026-05-04 19:20 | 48.11120 | 16.57116 | 1090 ft | 214 kts | 113° |
| 2026-05-04 19:21 | 48.10493 | 16.59214 | 1795 ft | 219 kts | 121° |
| 2026-05-04 19:21 | 48.09842 | 16.61293 | 2744 ft | 227 kts | 117° |
| 2026-05-04 19:21 | 48.09604 | 16.63788 | 3169 ft | 265 kts | 82° |
| 2026-05-04 19:21 | 48.10485 | 16.66318 | 3923 ft | 284 kts | 52° |
| 2026-05-04 19:22 | 48.11746 | 16.68654 | 4661 ft | 291 kts | 56° |
| 2026-05-04 19:22 | 48.12850 | 16.71160 | 5771 ft | 285 kts | 59° |
| 2026-05-04 19:22 | 48.13864 | 16.73703 | 6576 ft | 284 kts | 60° |
| 2026-05-04 19:22 | 48.14898 | 16.76234 | 6991 ft | 288 kts | 51° |
| 2026-05-04 19:23 | 48.16504 | 16.78075 | 6999 ft | 298 kts | 18° |
| 2026-05-04 19:23 | 48.18531 | 16.78341 | 7002 ft | 293 kts | 345° |
| 2026-05-04 19:23 | 48.20415 | 16.77349 | 6991 ft | 286 kts | 337° |
| 2026-05-04 19:23 | 48.22321 | 16.76380 | 7009 ft | 290 kts | 340° |
| 2026-05-04 19:24 | 48.24255 | 16.75482 | 7007 ft | 291 kts | 340° |
| 2026-05-04 19:24 | 48.26175 | 16.74608 | 7003 ft | 292 kts | 340° |
| 2026-05-04 19:24 | 48.28124 | 16.73726 | 7009 ft | 292 kts | 340° |
| 2026-05-04 19:24 | 48.30067 | 16.72849 | 7010 ft | 292 kts | 341° |
| 2026-05-04 19:25 | 48.32013 | 16.71972 | 7003 ft | 292 kts | 341° |
| 2026-05-04 19:25 | 48.33958 | 16.71098 | 6997 ft | 291 kts | 340° |
| 2026-05-04 19:25 | 48.35900 | 16.70225 | 7285 ft | 291 kts | 341° |
| 2026-05-04 19:25 | 48.37858 | 16.69340 | 8214 ft | 295 kts | 341° |
| 2026-05-04 19:26 | 48.39826 | 16.68447 | 9231 ft | 296 kts | 341° |
| 2026-05-04 19:26 | 48.41812 | 16.67540 | 10169 ft | 299 kts | 340° |
| 2026-05-04 19:26 | 48.43692 | 16.66225 | 10750 ft | 312 kts | 318° |
| 2026-05-04 19:26 | 48.45064 | 16.63577 | 10992 ft | 333 kts | 291° |
| 2026-05-04 19:27 | 48.45916 | 16.60203 | 11178 ft | 358 kts | 287° |
| 2026-05-04 19:27 | 48.46766 | 16.56597 | 11940 ft | 371 kts | 287° |
| 2026-05-04 19:27 | 48.47642 | 16.52895 | 13061 ft | 377 kts | 287° |
| 2026-05-04 19:27 | 48.48535 | 16.49161 | 14217 ft | 381 kts | 287° |
| 2026-05-04 19:28 | 48.49531 | 16.45434 | 15272 ft | 386 kts | 290° |
| 2026-05-04 19:28 | 48.50645 | 16.41714 | 16332 ft | 392 kts | 292° |
| 2026-05-04 19:28 | 48.51812 | 16.37967 | 17381 ft | 397 kts | 292° |
| 2026-05-04 19:28 | 48.53004 | 16.34171 | 18381 ft | 403 kts | 292° |
| 2026-05-04 19:29 | 48.54209 | 16.30314 | 19266 ft | 408 kts | 293° |
| 2026-05-04 19:29 | 48.55421 | 16.26412 | 20170 ft | 413 kts | 293° |
| 2026-05-04 19:29 | 48.56639 | 16.22460 | 21087 ft | 417 kts | 293° |
| 2026-05-04 19:29 | 48.57867 | 16.18455 | 21947 ft | 423 kts | 293° |
| 2026-05-04 19:30 | 48.59089 | 16.14453 | 22781 ft | 428 kts | 293° |
| 2026-05-04 19:30 | 48.60337 | 16.10354 | 23604 ft | 433 kts | 293° |
| 2026-05-04 19:30 | 48.61600 | 16.06195 | 24309 ft | 437 kts | 293° |
| 2026-05-04 19:30 | 48.62870 | 16.02007 | 25033 ft | 440 kts | 293° |
| 2026-05-04 19:31 | 48.64148 | 15.97787 | 25748 ft | 443 kts | 293° |
| 2026-05-04 19:31 | 48.65434 | 15.93532 | 26429 ft | 447 kts | 293° |
| 2026-05-04 19:31 | 48.66728 | 15.89242 | 27089 ft | 451 kts | 293° |
| 2026-05-04 19:31 | 48.68033 | 15.84909 | 27717 ft | 454 kts | 294° |
| 2026-05-04 19:32 | 48.69351 | 15.80528 | 28364 ft | 458 kts | 293° |
| 2026-05-04 19:32 | 48.70672 | 15.76124 | 28969 ft | 461 kts | 293° |
| 2026-05-04 19:32 | 48.72004 | 15.71679 | 29529 ft | 465 kts | 293° |
| 2026-05-04 19:32 | 48.73343 | 15.67202 | 29957 ft | 470 kts | 293° |
| 2026-05-04 19:33 | 48.74702 | 15.62650 | 29905 ft | 475 kts | 293° |
| 2026-05-04 19:33 | 48.77414 | 15.53549 | 30259 ft | 475 kts | 293° |
| 2026-05-04 19:33 | 48.78768 | 15.48991 | 30799 ft | 474 kts | 293° |
| 2026-05-04 19:34 | 48.80115 | 15.44450 | 31438 ft | 471 kts | 292° |
| 2026-05-04 19:34 | 48.81435 | 15.39989 | 32026 ft | 468 kts | 292° |
| 2026-05-04 19:34 | 48.82764 | 15.35491 | 32660 ft | 465 kts | 292° |
| 2026-05-04 19:34 | 48.84082 | 15.31026 | 33277 ft | 463 kts | 292° |
| 2026-05-04 19:35 | 48.85398 | 15.26567 | 33857 ft | 461 kts | 291° |
| 2026-05-04 19:35 | 48.86705 | 15.22129 | 34317 ft | 460 kts | 291° |
| 2026-05-04 19:35 | 48.88003 | 15.17696 | 34739 ft | 459 kts | 291° |
| 2026-05-04 19:35 | 48.89366 | 15.13298 | 35153 ft | 460 kts | 295° |
| 2026-05-04 19:36 | 48.90968 | 15.09093 | 35569 ft | 460 kts | 301° |
| 2026-05-04 19:36 | 48.92834 | 15.05126 | 35953 ft | 462 kts | 304° |
| 2026-05-04 19:36 | 48.94767 | 15.01172 | 35924 ft | 468 kts | 304° |
| 2026-05-04 19:36 | 48.96720 | 14.97203 | 36255 ft | 467 kts | 304° |
| 2026-05-04 19:37 | 48.98660 | 14.93259 | 36788 ft | 463 kts | 304° |
| 2026-05-04 19:37 | 49.00575 | 14.89354 | 37369 ft | 458 kts | 304° |
| 2026-05-04 19:37 | 49.02465 | 14.85478 | 37863 ft | 455 kts | 304° |
| 2026-05-04 19:38 | 49.06259 | 14.77650 | 37929 ft | 460 kts | 303° |
| 2026-05-04 19:38 | 49.10010 | 14.69884 | 37919 ft | 455 kts | 303° |
| 2026-05-04 19:39 | 49.13746 | 14.62127 | 37925 ft | 453 kts | 303° |
| 2026-05-04 19:39 | 49.17468 | 14.54375 | 37922 ft | 452 kts | 303° |
| 2026-05-04 19:40 | 49.21181 | 14.46620 | 37928 ft | 452 kts | 303° |
| 2026-05-04 19:40 | 49.24934 | 14.38756 | 37942 ft | 463 kts | 303° |
| 2026-05-04 19:41 | 49.28772 | 14.30698 | 37934 ft | 472 kts | 303° |
| 2026-05-04 19:41 | 49.32638 | 14.22559 | 37938 ft | 471 kts | 303° |
| 2026-05-04 19:42 | 49.36455 | 14.14500 | 37915 ft | 463 kts | 303° |
| 2026-05-04 19:42 | 49.40204 | 14.06550 | 37935 ft | 462 kts | 302° |
| 2026-05-04 19:43 | 49.43971 | 13.98537 | 37939 ft | 463 kts | 302° |
| 2026-05-04 19:43 | 49.47740 | 13.90496 | 37936 ft | 464 kts | 302° |
| 2026-05-04 19:44 | 49.51518 | 13.82416 | 37938 ft | 465 kts | 302° |
| 2026-05-04 19:44 | 49.55296 | 13.74312 | 37941 ft | 466 kts | 302° |
| 2026-05-04 19:45 | 49.59077 | 13.66178 | 37939 ft | 467 kts | 302° |
| 2026-05-04 19:45 | 49.62222 | 13.59391 | 37958 ft | 468 kts | 302° |
| 2026-05-04 19:46 | 49.66000 | 13.51218 | 37936 ft | 468 kts | 302° |
| 2026-05-04 19:46 | 49.70387 | 13.41694 | 37942 ft | 467 kts | 301° |
| 2026-05-04 19:47 | 49.73546 | 13.34813 | 37940 ft | 467 kts | 301° |
| 2026-05-04 19:47 | 49.77279 | 13.26659 | 37939 ft | 467 kts | 301° |
| 2026-05-04 19:48 | 49.81023 | 13.18458 | 37936 ft | 466 kts | 301° |
| 2026-05-04 19:48 | 49.84757 | 13.10254 | 37941 ft | 466 kts | 301° |
| 2026-05-04 19:49 | 49.88488 | 13.02030 | 37951 ft | 466 kts | 301° |
| 2026-05-04 19:49 | 49.92215 | 12.93791 | 37953 ft | 466 kts | 301° |